createdAt,value
2018-10-17T00:01:30.797Z,1.70
2018-10-17T00:04:02.995Z,1.90
2018-10-17T00:06:36.154Z,1.73
2018-10-17T00:09:12.840Z,1.87
2018-10-17T00:11:47.151Z,1.57
2018-10-17T00:14:21.842Z,1.97
2018-10-17T00:16:54.749Z,1.60
2018-10-17T00:19:28.973Z,1.70
2018-10-17T00:22:02.296Z,1.80
2018-10-17T00:24:34.949Z,1.80
2018-10-17T00:27:09.603Z,1.80
2018-10-17T00:29:49.585Z,1.80
2018-10-17T00:32:27.514Z,2.20
2018-10-17T00:35:03.105Z,1.80
2018-10-17T00:37:37.014Z,1.97
2018-10-17T00:42:50.288Z,1.83
2018-10-17T00:48:05.708Z,2.00
2018-10-17T00:53:21.765Z,2.00
2018-10-17T00:56:00.575Z,1.60
2018-10-17T01:06:33.995Z,2.13
2018-10-17T01:09:11.196Z,2.00
2018-10-17T01:25:12.249Z,2.43
2018-10-17T01:33:14.799Z,2.30
2018-10-17T01:38:34.404Z,2.23
2018-10-17T01:41:11.273Z,1.80
2018-10-17T01:43:51.531Z,2.07
2018-10-17T01:46:29.543Z,2.10
2018-10-17T01:49:08.818Z,2.07
2018-10-17T01:51:45.947Z,2.27
2018-10-17T02:05:13.188Z,2.37
2018-10-17T02:07:57.334Z,2.00
2018-10-17T02:10:35.079Z,2.30
2018-10-17T02:13:10.820Z,2.43
2018-10-17T02:18:31.718Z,2.03
2018-10-17T02:21:06.960Z,2.23
2018-10-17T02:23:47.073Z,2.60
2018-10-17T02:29:06.692Z,2.10
2018-10-17T02:31:40.822Z,1.97
2018-10-17T02:36:54.566Z,1.60
2018-10-17T02:39:36.712Z,1.80
2018-10-17T02:42:12.925Z,2.20
2018-10-17T02:50:11.637Z,1.70
2018-10-17T02:52:46.570Z,1.90
2018-10-17T02:55:20.705Z,2.10
2018-10-17T02:57:54.338Z,2.00
2018-10-17T03:03:06.461Z,2.17
2018-10-17T03:05:41.845Z,2.00
2018-10-17T03:08:19.430Z,2.17
2018-10-17T03:10:53.016Z,1.97
2018-10-17T03:13:27.955Z,2.20
2018-10-17T03:16:04.199Z,2.00
2018-10-17T03:18:37.590Z,2.70
2018-10-17T03:21:11.707Z,1.80
2018-10-17T03:23:44.565Z,1.97
2018-10-17T03:26:17.297Z,2.20
2018-10-17T03:28:49.489Z,1.90
2018-10-17T03:31:22.023Z,2.30
2018-10-17T03:33:54.321Z,2.00
2018-10-17T03:36:27.003Z,2.30
2018-10-17T03:38:59.688Z,1.80
2018-10-17T03:41:31.909Z,1.97
2018-10-17T03:44:04.719Z,1.70
2018-10-17T03:46:37.625Z,2.17
2018-10-17T03:49:10.495Z,1.97
2018-10-17T03:51:42.616Z,1.60
2018-10-17T03:54:14.585Z,1.90
2018-10-17T03:56:47.360Z,1.77
2018-10-17T03:59:20.645Z,2.70
2018-10-17T04:01:53.489Z,1.93
2018-10-17T04:04:26.282Z,1.83
2018-10-17T04:06:58.841Z,1.83
2018-10-17T04:09:30.743Z,2.17
2018-10-17T04:12:03.151Z,1.80
2018-10-17T04:14:35.758Z,1.77
2018-10-17T04:17:08.765Z,2.13
2018-10-17T04:19:42.107Z,1.90
2018-10-17T04:22:14.611Z,2.27
2018-10-17T04:24:47.088Z,2.10
2018-10-17T04:27:19.358Z,1.93
2018-10-17T04:29:51.704Z,1.93
2018-10-17T04:32:24.556Z,1.83
2018-10-17T04:34:57.196Z,1.93
2018-10-17T04:37:29.900Z,1.67
2018-10-17T04:40:02.266Z,2.20
2018-10-17T04:42:34.527Z,2.17
2018-10-17T04:45:08.697Z,2.00
2018-10-17T04:47:41.111Z,1.80
2018-10-17T04:50:14.267Z,2.13
2018-10-17T04:52:46.887Z,1.83
2018-10-17T04:55:19.243Z,1.90
2018-10-17T04:57:51.959Z,2.53
2018-10-17T05:00:24.154Z,2.10
2018-10-17T05:02:56.648Z,2.00
2018-10-17T05:05:29.339Z,2.27
2018-10-17T05:08:03.587Z,1.70
2018-10-17T05:10:36.169Z,2.10
2018-10-17T05:13:08.810Z,2.20
2018-10-17T05:15:41.392Z,1.87
2018-10-17T05:18:13.686Z,2.00
2018-10-17T05:20:46.267Z,2.23
2018-10-17T05:23:18.511Z,1.80
2018-10-17T05:25:50.736Z,2.23
2018-10-17T05:28:23.488Z,3.30
2018-10-17T05:30:55.618Z,2.60
2018-10-17T05:33:28.319Z,2.73
2018-10-17T05:36:00.791Z,2.70
2018-10-17T05:38:33.290Z,2.37
2018-10-17T05:41:05.678Z,2.50
2018-10-17T05:43:38.035Z,2.70
2018-10-17T05:46:10.337Z,2.67
2018-10-17T05:48:42.885Z,3.00
2018-10-17T05:51:15.581Z,2.70
2018-10-17T05:53:48.018Z,3.30
2018-10-17T05:56:20.185Z,3.30
2018-10-17T05:58:52.606Z,2.97
2018-10-17T06:01:25.140Z,3.60
2018-10-17T06:03:57.278Z,2.70
2018-10-17T06:06:29.880Z,2.80
2018-10-17T06:09:02.898Z,2.83
2018-10-17T06:11:35.384Z,3.00
2018-10-17T06:14:07.986Z,3.03
2018-10-17T06:16:40.364Z,3.63
2018-10-17T06:19:13.216Z,3.30
2018-10-17T06:21:45.716Z,3.30
2018-10-17T06:24:18.113Z,2.90
2018-10-17T06:26:50.383Z,3.07
2018-10-17T06:29:22.621Z,3.47
2018-10-17T06:31:55.127Z,3.27
2018-10-17T06:34:27.804Z,2.93
2018-10-17T06:37:00.236Z,3.00
2018-10-17T06:39:32.450Z,3.40
2018-10-17T06:42:04.863Z,2.97
2018-10-17T06:44:37.192Z,2.70
2018-10-17T06:47:09.683Z,4.00
2018-10-17T06:49:41.976Z,3.50
2018-10-17T06:52:14.329Z,3.00
2018-10-17T06:54:46.885Z,3.87
2018-10-17T06:57:19.639Z,3.83
2018-10-17T06:59:51.848Z,3.50
2018-10-17T07:02:24.819Z,3.30
2018-10-17T07:04:57.547Z,3.70
2018-10-17T07:07:29.851Z,3.40
2018-10-17T07:10:03.729Z,3.53
2018-10-17T07:12:36.582Z,3.20
2018-10-17T07:15:09.726Z,3.20
2018-10-17T07:17:42.197Z,3.70
2018-10-17T07:20:16.291Z,3.40
2018-10-17T07:22:49.074Z,3.83
2018-10-17T07:25:21.666Z,3.50
2018-10-17T07:27:54.185Z,4.10
2018-10-17T07:30:26.647Z,4.10
2018-10-17T07:32:59.138Z,3.47
2018-10-17T07:35:31.617Z,3.57
2018-10-17T07:38:03.937Z,4.13
2018-10-17T07:40:36.635Z,3.80
2018-10-17T07:43:09.125Z,4.30
2018-10-17T07:45:41.431Z,3.60
2018-10-17T07:48:13.956Z,4.03
2018-10-17T07:50:46.231Z,3.50
2018-10-17T07:53:18.678Z,3.80
2018-10-17T07:55:51.130Z,3.70
2018-10-17T07:58:23.498Z,4.80
2018-10-17T08:00:55.939Z,4.43
2018-10-17T08:03:28.823Z,4.10
2018-10-17T08:06:01.810Z,4.03
2018-10-17T08:08:34.353Z,3.57
2018-10-17T08:11:07.114Z,3.97
2018-10-17T08:13:39.311Z,3.70
2018-10-17T08:16:12.248Z,3.60
2018-10-17T08:18:44.567Z,3.37
2018-10-17T08:21:17.091Z,3.53
2018-10-17T08:23:49.642Z,3.93
2018-10-17T08:26:22.235Z,3.70
2018-10-17T08:28:54.490Z,4.10
2018-10-17T08:31:27.249Z,4.10
2018-10-17T08:33:59.500Z,4.10
2018-10-17T08:36:32.405Z,4.00
2018-10-17T08:39:06.531Z,4.20
2018-10-17T08:41:39.111Z,4.00
2018-10-17T08:44:11.644Z,3.83
2018-10-17T08:46:44.315Z,4.30
2018-10-17T08:49:16.637Z,4.50
2018-10-17T08:51:49.332Z,3.77
2018-10-17T08:54:21.788Z,4.03
2018-10-17T08:56:54.229Z,3.70
2018-10-17T08:59:26.539Z,3.80
2018-10-17T09:01:58.970Z,3.50
2018-10-17T09:04:31.277Z,4.40
2018-10-17T09:07:04.072Z,4.40
2018-10-17T09:09:36.741Z,4.53
2018-10-17T09:12:09.338Z,3.70
2018-10-17T09:14:41.769Z,4.17
2018-10-17T09:17:14.204Z,4.73
2018-10-17T09:19:46.802Z,4.27
2018-10-17T09:22:19.431Z,4.30
2018-10-17T09:24:52.137Z,3.77
2018-10-17T09:27:24.740Z,4.30
2018-10-17T09:29:57.394Z,4.07
2018-10-17T09:32:30.372Z,3.50
2018-10-17T09:35:02.821Z,4.23
2018-10-17T09:37:35.243Z,4.23
2018-10-17T09:40:08.393Z,4.23
2018-10-17T09:42:41.160Z,4.23
2018-10-17T09:45:12.652Z,4.60
2018-10-17T09:47:45.047Z,4.07
2018-10-17T09:50:17.283Z,4.43
2018-10-17T09:52:49.606Z,4.30
2018-10-17T09:55:21.931Z,4.90
2018-10-17T09:57:54.392Z,4.50
2018-10-17T10:00:31.335Z,4.07
2018-10-17T10:03:04.035Z,4.20
2018-10-17T10:05:36.193Z,3.90
2018-10-17T10:08:08.964Z,4.60
2018-10-17T10:10:41.115Z,3.93
2018-10-17T10:13:13.623Z,3.80
2018-10-17T10:15:46.090Z,4.23
2018-10-17T10:18:18.733Z,4.17
2018-10-17T10:20:51.425Z,4.50
2018-10-17T10:23:23.942Z,3.67
2018-10-17T10:25:56.388Z,4.70
2018-10-17T10:28:28.939Z,3.97
2018-10-17T10:31:01.979Z,4.30
2018-10-17T10:33:34.262Z,5.00
2018-10-17T10:36:06.385Z,4.60
2018-10-17T10:38:38.750Z,4.10
2018-10-17T10:41:11.450Z,4.37
2018-10-17T10:43:44.558Z,5.00
2018-10-17T10:46:17.633Z,5.03
2018-10-17T10:48:49.957Z,5.70
2018-10-17T10:51:22.863Z,5.70
2018-10-17T10:53:55.357Z,5.63
2018-10-17T10:56:27.665Z,5.33
2018-10-17T10:59:00.321Z,5.10
2018-10-17T11:01:32.546Z,5.60
2018-10-17T11:04:05.080Z,5.87
2018-10-17T11:06:37.699Z,5.80
2018-10-17T11:09:11.625Z,5.90
2018-10-17T11:11:43.969Z,5.30
2018-10-17T11:14:17.204Z,5.80
2018-10-17T11:16:49.614Z,5.40
2018-10-17T11:19:21.931Z,5.50
2018-10-17T11:21:54.017Z,5.67
2018-10-17T11:24:27.070Z,5.30
2018-10-17T11:26:59.615Z,5.73
2018-10-17T11:29:32.099Z,6.27
2018-10-17T11:32:04.534Z,5.67
2018-10-17T11:34:37.140Z,6.05
2018-10-17T11:37:09.507Z,5.80
2018-10-17T11:39:41.809Z,6.55
2018-10-17T11:42:14.778Z,5.73
2018-10-17T11:44:47.089Z,6.92
2018-10-17T11:47:19.887Z,6.78
2018-10-17T11:49:52.211Z,5.90
2018-10-17T11:52:24.739Z,6.10
2018-10-17T11:54:57.463Z,5.00
2018-10-17T11:57:30.298Z,6.53
2018-10-17T12:00:02.751Z,5.80
2018-10-17T12:02:35.076Z,6.45
2018-10-17T12:05:09.003Z,6.60
2018-10-17T12:07:41.564Z,7.65
2018-10-17T12:10:13.977Z,6.50
2018-10-17T12:12:46.075Z,6.03
2018-10-17T12:15:18.524Z,6.62
2018-10-17T12:17:51.035Z,7.17
2018-10-17T12:20:23.484Z,7.03
2018-10-17T12:22:55.584Z,7.80
2018-10-17T12:25:28.055Z,6.90
2018-10-17T12:28:00.440Z,6.75
2018-10-17T12:30:33.702Z,7.25
2018-10-17T12:33:06.139Z,6.25
2018-10-17T12:35:38.532Z,6.50
2018-10-17T12:38:10.766Z,6.90
2018-10-17T12:40:43.415Z,6.47
2018-10-17T12:43:15.784Z,7.53
2018-10-17T12:45:48.436Z,8.00
2018-10-17T12:48:21.024Z,6.95
2018-10-17T12:50:53.922Z,8.38
2018-10-17T12:53:26.438Z,8.30
2018-10-17T12:55:58.980Z,8.53
2018-10-17T12:58:31.188Z,8.55
2018-10-17T13:01:03.911Z,6.70
2018-10-17T13:03:36.116Z,7.03
2018-10-17T13:06:08.896Z,7.70
2018-10-17T13:08:41.223Z,7.70
2018-10-17T13:11:13.734Z,7.37
2018-10-17T13:13:46.429Z,8.10
2018-10-17T13:16:19.223Z,7.72
2018-10-17T13:18:51.539Z,8.87
2018-10-17T13:21:23.844Z,8.80
2018-10-17T13:23:56.323Z,9.00
2018-10-17T13:26:29.040Z,9.10
2018-10-17T13:29:01.239Z,9.58
2018-10-17T13:31:33.644Z,9.45
2018-10-17T13:34:06.181Z,9.90
2018-10-17T13:36:38.462Z,9.58
2018-10-17T13:39:14.595Z,8.75
2018-10-17T13:41:47.191Z,8.93
2018-10-17T13:44:19.599Z,9.18
2018-10-17T13:46:52.382Z,10.80
2018-10-17T13:49:25.002Z,9.48
2018-10-17T13:51:57.343Z,10.32
2018-10-17T13:54:29.681Z,10.15
2018-10-17T13:57:02.386Z,8.80
2018-10-17T13:59:34.715Z,10.48
2018-10-17T14:02:07.152Z,9.93
2018-10-17T14:04:39.704Z,10.50
2018-10-17T14:07:12.344Z,10.10
2018-10-17T14:09:45.295Z,10.95
2018-10-17T14:12:17.625Z,11.12
2018-10-17T14:14:50.180Z,8.90
2018-10-17T14:17:22.958Z,9.88
2018-10-17T14:19:55.570Z,9.40
2018-10-17T14:22:28.253Z,9.43
2018-10-17T14:25:00.876Z,8.55
2018-10-17T14:27:33.442Z,9.85
2018-10-17T14:30:05.810Z,7.37
2018-10-17T14:32:38.502Z,8.13
2018-10-17T14:35:13.517Z,8.90
2018-10-17T14:37:46.069Z,7.83
2018-10-17T14:40:18.672Z,8.80
2018-10-17T14:42:51.569Z,8.23
2018-10-17T14:45:23.834Z,8.20
2018-10-17T14:47:56.775Z,8.23
2018-10-17T14:50:29.614Z,8.73
2018-10-17T14:53:01.958Z,8.87
2018-10-17T14:55:34.533Z,7.73
2018-10-17T14:58:07.257Z,7.30
2018-10-17T15:00:39.745Z,8.47
2018-10-17T15:03:12.091Z,6.07
2018-10-17T15:05:44.603Z,6.97
2018-10-17T15:08:17.486Z,5.93
2018-10-17T15:10:50.139Z,7.97
2018-10-17T15:13:22.418Z,7.03
2018-10-17T15:15:54.976Z,7.70
2018-10-17T15:18:27.634Z,9.30
2018-10-17T15:21:00.146Z,10.67
2018-10-17T15:23:32.826Z,12.10
2018-10-17T15:26:05.278Z,11.97
2018-10-17T15:28:37.787Z,13.43
2018-10-17T15:31:10.624Z,11.43
2018-10-17T15:33:42.928Z,13.20
2018-10-17T15:36:15.622Z,11.90
2018-10-17T15:38:48.688Z,12.23
2018-10-17T15:41:21.218Z,13.10
2018-10-17T15:43:53.624Z,11.50
2018-10-17T15:46:26.259Z,11.33
2018-10-17T15:48:58.544Z,12.13
2018-10-17T15:51:31.463Z,13.70
2018-10-17T15:54:04.056Z,12.33
2018-10-17T15:56:36.806Z,12.83
2018-10-17T15:59:09.499Z,15.17
2018-10-17T16:01:41.854Z,13.40
2018-10-17T16:04:14.405Z,14.20
2018-10-17T16:06:47.212Z,14.80
2018-10-17T16:09:19.657Z,14.47
2018-10-17T16:11:52.102Z,13.90
2018-10-17T16:14:24.720Z,14.77
2018-10-17T16:16:57.172Z,14.67
2018-10-17T16:19:29.713Z,15.03
2018-10-17T16:22:02.046Z,15.83
2018-10-17T16:24:34.457Z,14.03
2018-10-17T16:27:07.365Z,13.10
2018-10-17T16:29:39.711Z,14.50
2018-10-17T16:32:12.499Z,13.33
2018-10-17T16:34:45.085Z,12.63
2018-10-17T16:37:17.624Z,12.37
2018-10-17T16:39:50.401Z,12.40
2018-10-17T16:42:22.753Z,11.73
2018-10-17T16:44:55.412Z,12.37
2018-10-17T16:47:28.308Z,11.83
2018-10-17T16:50:00.477Z,12.63
2018-10-17T16:52:33.043Z,11.77
2018-10-17T16:55:05.413Z,11.00
2018-10-17T16:57:38.036Z,11.63
2018-10-17T17:00:12.553Z,12.70
2018-10-17T17:02:48.323Z,11.17
2018-10-17T17:05:20.713Z,10.37
2018-10-17T17:07:53.182Z,10.73
2018-10-17T17:10:26.338Z,10.10
2018-10-17T17:12:58.708Z,11.13
2018-10-17T17:15:30.872Z,11.13
2018-10-17T17:18:03.506Z,10.30
2018-10-17T17:20:36.240Z,8.37
2018-10-17T17:23:08.734Z,10.10
2018-10-17T17:25:41.072Z,9.23
2018-10-17T17:28:13.379Z,9.30
2018-10-17T17:30:45.940Z,9.40
2018-10-17T17:33:18.192Z,11.70
2018-10-17T17:35:51.019Z,11.10
2018-10-17T17:38:23.413Z,13.17
2018-10-17T17:40:56.166Z,12.40
2018-10-17T17:43:28.712Z,10.57
2018-10-17T17:46:01.212Z,10.10
2018-10-17T17:48:33.635Z,9.93
2018-10-17T17:51:06.659Z,8.47
2018-10-17T17:53:40.212Z,7.80
2018-10-17T17:56:12.705Z,7.27
2018-10-17T17:58:45.383Z,7.30
2018-10-17T18:01:17.642Z,6.17
2018-10-17T18:03:51.366Z,6.27
2018-10-17T18:06:24.143Z,7.00
2018-10-17T18:08:57.644Z,7.60
2018-10-17T18:11:30.029Z,6.83
2018-10-17T18:14:02.253Z,6.87
2018-10-17T18:16:35.191Z,11.23
2018-10-17T18:19:07.689Z,8.40
2018-10-17T18:21:40.840Z,8.50
2018-10-17T18:24:13.171Z,6.43
2018-10-17T18:26:45.380Z,6.30
2018-10-17T18:29:17.708Z,5.50
2018-10-17T18:31:50.154Z,5.33
2018-10-17T18:34:22.746Z,6.00
2018-10-17T18:36:55.325Z,5.77
2018-10-17T18:39:27.713Z,5.93
2018-10-17T18:42:00.497Z,5.60
2018-10-17T18:44:33.818Z,5.40
2018-10-17T18:47:06.321Z,5.50
2018-10-17T18:49:39.062Z,5.20
2018-10-17T18:52:11.744Z,5.77
2018-10-17T18:54:44.256Z,5.60
2018-10-17T18:57:17.162Z,5.17
2018-10-17T18:59:49.832Z,5.10
2018-10-17T19:02:22.796Z,5.80
2018-10-17T19:04:55.422Z,5.23
2018-10-17T19:07:28.369Z,5.47
2018-10-17T19:10:00.589Z,5.93
2018-10-17T19:12:33.228Z,6.60
2018-10-17T19:15:05.645Z,7.47
2018-10-17T19:17:38.258Z,5.90
2018-10-17T19:20:10.650Z,8.73
2018-10-17T19:22:43.195Z,8.50
2018-10-17T19:25:15.650Z,6.03
2018-10-17T19:27:47.984Z,5.23
2018-10-17T19:30:20.554Z,6.13
2018-10-17T19:32:53.224Z,5.93
2018-10-17T19:35:25.303Z,5.80
2018-10-17T19:37:57.742Z,5.33
2018-10-17T19:40:29.972Z,5.50
2018-10-17T19:43:02.422Z,4.77
2018-10-17T19:45:34.965Z,5.27
2018-10-17T19:48:07.571Z,5.40
2018-10-17T19:50:40.507Z,5.10
2018-10-17T19:53:13.314Z,5.30
2018-10-17T19:55:45.879Z,4.90
2018-10-17T19:58:18.675Z,4.90
2018-10-17T20:00:51.323Z,4.57
2018-10-17T20:03:23.696Z,4.80
2018-10-17T20:05:56.223Z,5.10
2018-10-17T20:08:28.831Z,4.60
2018-10-17T20:11:01.990Z,4.70
2018-10-17T20:13:34.290Z,4.77
2018-10-17T20:16:06.767Z,4.83
2018-10-17T20:18:39.429Z,4.00
2018-10-17T20:21:11.874Z,4.40
2018-10-17T20:23:44.420Z,5.30
2018-10-17T20:26:16.848Z,4.90
2018-10-17T20:28:49.558Z,4.60
2018-10-17T20:31:22.358Z,4.40
2018-10-17T20:33:54.691Z,5.00
2018-10-17T20:36:27.406Z,4.83
2018-10-17T20:38:59.682Z,4.60
2018-10-17T20:41:32.012Z,4.50
2018-10-17T20:44:04.340Z,4.83
2018-10-17T20:46:37.267Z,5.83
2018-10-17T20:49:10.735Z,4.30
2018-10-17T20:51:43.317Z,5.50
2018-10-17T20:54:15.819Z,5.20
2018-10-17T20:56:48.642Z,4.57
2018-10-17T20:59:20.965Z,5.37
2018-10-17T21:01:53.357Z,4.83
2018-10-17T21:04:25.873Z,5.40
2018-10-17T21:06:58.258Z,5.00
2018-10-17T21:09:30.576Z,4.70
2018-10-17T21:12:03.156Z,4.70
2018-10-17T21:14:35.554Z,4.70
2018-10-17T21:17:08.468Z,4.90
2018-10-17T21:19:41.382Z,4.57
2018-10-17T21:22:14.191Z,4.70
2018-10-17T21:24:46.678Z,4.27
2018-10-17T21:27:19.083Z,4.20
2018-10-17T21:29:51.532Z,4.00
2018-10-17T21:32:24.488Z,4.23
2018-10-17T21:34:56.743Z,4.10
2018-10-17T21:37:29.435Z,4.80
2018-10-17T21:40:01.836Z,4.67
2018-10-17T21:42:34.200Z,3.80
2018-10-17T21:45:07.647Z,4.13
2018-10-17T21:47:40.125Z,4.30
2018-10-17T21:50:12.655Z,4.10
2018-10-17T21:52:45.116Z,4.40
2018-10-17T21:55:17.582Z,4.10
2018-10-17T21:57:49.802Z,4.33
2018-10-17T22:00:22.602Z,4.37
2018-10-17T22:02:54.785Z,4.23
2018-10-17T22:05:27.088Z,4.17
2018-10-17T22:07:59.854Z,4.13
2018-10-17T22:10:32.493Z,4.70
2018-10-17T22:13:06.425Z,5.20
2018-10-17T22:15:38.737Z,4.33
2018-10-17T22:18:11.350Z,4.70
2018-10-17T22:20:43.902Z,4.50
2018-10-17T22:23:16.408Z,4.27
2018-10-17T22:25:49.287Z,3.90
2018-10-17T22:28:21.624Z,4.77
2018-10-17T22:30:53.981Z,4.93
2018-10-17T22:33:26.746Z,5.10
2018-10-17T22:35:59.128Z,4.63
2018-10-17T22:38:31.774Z,4.77
2018-10-17T22:41:04.442Z,4.83
2018-10-17T22:43:36.860Z,4.53
2018-10-17T22:46:09.606Z,4.10
2018-10-17T22:48:42.261Z,3.97
2018-10-17T22:51:14.802Z,4.30
2018-10-17T22:53:47.261Z,3.53
2018-10-17T22:56:19.742Z,4.40
2018-10-17T22:58:52.003Z,3.97
2018-10-17T23:01:24.365Z,4.17
2018-10-17T23:03:56.439Z,4.80
2018-10-17T23:06:29.065Z,3.70
2018-10-17T23:09:02.285Z,3.80
2018-10-17T23:11:35.575Z,4.40
2018-10-17T23:14:08.503Z,4.30
2018-10-17T23:16:41.849Z,4.43
2018-10-17T23:19:14.485Z,4.53
2018-10-17T23:21:46.835Z,4.13
2018-10-17T23:24:19.170Z,3.80
2018-10-17T23:26:51.823Z,4.20
2018-10-17T23:29:24.231Z,4.13
2018-10-17T23:31:56.603Z,4.63
2018-10-17T23:34:28.794Z,4.23
2018-10-17T23:37:01.291Z,4.80
2018-10-17T23:39:33.632Z,4.73
2018-10-17T23:42:06.295Z,3.90
2018-10-17T23:44:38.757Z,3.90
2018-10-17T23:47:11.142Z,3.90
2018-10-17T23:49:43.530Z,3.50
2018-10-17T23:52:16.111Z,4.10
2018-10-17T23:54:48.301Z,4.30
2018-10-17T23:57:20.813Z,4.77
2018-10-17T23:59:54.155Z,4.37
